createdAt,value
2022-09-06T00:02:55.603Z,22.73
2022-09-06T00:04:25.589Z,22.72
2022-09-06T00:08:51.790Z,22.69
2022-09-06T00:13:10.400Z,22.68
2022-09-06T00:14:40.360Z,22.65
2022-09-06T00:18:26.745Z,22.62
2022-09-06T00:19:55.632Z,22.62
2022-09-06T00:21:54.656Z,22.59
2022-09-06T00:24:11.987Z,22.57
2022-09-06T00:25:42.335Z,22.57
2022-09-06T00:36:47.451Z,22.57
2022-09-06T00:39:17.667Z,22.54
2022-09-06T00:40:47.711Z,22.55
2022-09-06T00:42:47.683Z,22.55
2022-09-06T00:47:53.862Z,22.54
2022-09-06T00:49:02.779Z,22.54
2022-09-06T00:51:01.519Z,22.50
2022-09-06T00:52:59.430Z,22.48
2022-09-06T00:54:57.265Z,22.47
2022-09-06T00:57:15.965Z,22.43
2022-09-06T01:01:25.076Z,22.43
2022-09-06T01:02:54.048Z,22.39
2022-09-06T01:04:52.898Z,22.36
2022-09-06T01:07:42.306Z,22.36
2022-09-06T01:12:39.580Z,22.33
2022-09-06T01:19:43.269Z,22.30
2022-09-06T01:22:01.838Z,22.29
2022-09-06T01:23:30.708Z,22.26
2022-09-06T01:28:29.410Z,22.25
2022-09-06T01:31:47.539Z,22.23
2022-09-06T01:33:17.187Z,22.20
2022-09-06T01:35:15.245Z,22.20
2022-09-06T01:42:46.330Z,22.13
2022-09-06T01:53:33.935Z,22.00
2022-09-06T01:55:04.254Z,21.98
2022-09-06T01:56:51.474Z,21.96
2022-09-06T01:59:21.416Z,21.93
2022-09-06T02:00:51.293Z,21.92
2022-09-06T02:02:21.283Z,21.89
2022-09-06T02:04:19.081Z,21.88
2022-09-06T02:06:37.854Z,21.88
2022-09-06T02:07:46.765Z,21.83
2022-09-06T02:09:15.703Z,21.80
2022-09-06T02:12:15.728Z,21.77
2022-09-06T02:13:44.642Z,21.76
2022-09-06T02:15:14.559Z,21.72
2022-09-06T02:17:43.496Z,21.69
2022-09-06T02:19:13.320Z,21.67
2022-09-06T02:21:13.197Z,21.66
2022-09-06T02:23:42.068Z,21.62
2022-09-06T02:28:30.113Z,21.60
2022-09-06T02:30:55.994Z,21.57
2022-09-06T02:37:10.777Z,21.54
2022-09-06T02:38:39.233Z,21.55
2022-09-06T02:41:45.545Z,21.54
2022-09-06T02:43:35.247Z,21.57
2022-09-06T02:47:20.609Z,21.55
2022-09-06T02:50:17.670Z,21.57
2022-09-06T02:57:30.476Z,21.55
2022-09-06T02:59:28.118Z,21.54
2022-09-06T03:01:17.857Z,21.54
2022-09-06T03:02:47.819Z,21.51
2022-09-06T03:04:17.753Z,21.50
2022-09-06T03:07:17.147Z,21.48
2022-09-06T03:08:28.072Z,21.48
2022-09-06T03:09:55.050Z,21.46
2022-09-06T03:11:25.971Z,21.45
2022-09-06T03:12:54.819Z,21.42
2022-09-06T03:14:45.521Z,21.42
2022-09-06T03:16:12.449Z,21.39
2022-09-06T03:20:11.733Z,21.36
2022-09-06T03:24:06.583Z,21.29
2022-09-06T03:26:55.229Z,21.24
2022-09-06T03:30:14.246Z,21.21
2022-09-06T03:31:43.645Z,21.21
2022-09-06T03:33:41.574Z,21.20
2022-09-06T03:35:11.435Z,21.20
2022-09-06T03:36:41.550Z,21.17
2022-09-06T03:40:01.255Z,21.15
2022-09-06T03:42:29.939Z,21.11
2022-09-06T03:44:28.800Z,21.09
2022-09-06T03:46:47.877Z,21.07
2022-09-06T03:48:47.684Z,21.05
2022-09-06T03:51:35.745Z,21.03
2022-09-06T03:56:15.810Z,20.97
2022-09-06T03:58:14.684Z,20.93
2022-09-06T03:59:43.659Z,20.93
2022-09-06T04:02:01.251Z,20.90
2022-09-06T04:04:30.455Z,20.87
2022-09-06T04:06:29.291Z,20.85
2022-09-06T04:13:30.474Z,20.82
2022-09-06T04:16:02.425Z,20.78
2022-09-06T04:21:46.496Z,20.74
2022-09-06T04:27:00.846Z,20.67
2022-09-06T04:29:28.972Z,20.66
2022-09-06T04:33:15.620Z,20.62
2022-09-06T04:36:05.436Z,20.58
2022-09-06T04:40:30.846Z,20.55
2022-09-06T04:43:47.610Z,20.52
2022-09-06T04:45:47.780Z,20.47
2022-09-06T04:50:43.027Z,20.40
2022-09-06T04:52:31.743Z,20.34
2022-09-06T04:56:47.467Z,20.25
2022-09-06T04:58:17.563Z,20.26
2022-09-06T04:59:46.449Z,20.26
2022-09-06T05:01:16.617Z,20.25
2022-09-06T05:05:54.040Z,20.21
2022-09-06T05:08:41.823Z,20.19
2022-09-06T05:12:44.103Z,20.14
2022-09-06T05:17:46.027Z,20.07
2022-09-06T05:20:34.816Z,20.04
2022-09-06T05:22:04.741Z,19.99
2022-09-06T05:24:22.882Z,19.92
2022-09-06T05:27:09.778Z,19.89
2022-09-06T05:28:44.791Z,19.89
2022-09-06T05:30:14.056Z,19.89
2022-09-06T05:31:42.748Z,19.89
2022-09-06T05:33:11.560Z,19.91
2022-09-06T05:34:40.523Z,19.89
2022-09-06T05:36:10.417Z,19.86
2022-09-06T05:40:10.142Z,19.79
2022-09-06T05:47:51.624Z,19.71
2022-09-06T05:49:23.521Z,19.71
2022-09-06T05:51:12.156Z,19.76
2022-09-06T05:53:42.897Z,19.74
2022-09-06T05:55:44.257Z,19.76
2022-09-06T05:57:44.017Z,19.79
2022-09-06T05:59:11.367Z,19.81
2022-09-06T06:01:10.753Z,19.79
2022-09-06T06:06:20.049Z,19.74
2022-09-06T06:07:47.835Z,19.73
2022-09-06T06:10:08.042Z,19.73
2022-09-06T06:11:34.522Z,19.73
2022-09-06T06:13:04.499Z,19.74
2022-09-06T06:14:34.407Z,19.74
2022-09-06T06:17:24.382Z,19.74
2022-09-06T06:18:53.275Z,19.73
2022-09-06T06:22:00.682Z,19.73
2022-09-06T06:23:33.054Z,19.74
2022-09-06T06:25:00.859Z,19.73
2022-09-06T06:26:31.719Z,19.74
2022-09-06T06:28:28.457Z,19.76
2022-09-06T06:34:43.264Z,19.69
2022-09-06T06:36:46.587Z,19.66
2022-09-06T06:39:36.442Z,19.58
2022-09-06T06:45:35.836Z,19.63
2022-09-06T06:47:05.757Z,19.63
2022-09-06T06:50:22.781Z,19.63
2022-09-06T06:52:23.361Z,19.67
2022-09-06T06:53:52.228Z,19.69
2022-09-06T06:55:20.636Z,19.71
2022-09-06T06:56:50.430Z,19.74
2022-09-06T06:58:39.116Z,19.79
2022-09-06T07:01:30.621Z,19.82
2022-09-06T07:04:30.294Z,19.86
2022-09-06T07:07:58.840Z,19.91
2022-09-06T07:10:50.465Z,19.92
2022-09-06T07:12:22.998Z,19.94
2022-09-06T07:14:54.032Z,19.96
2022-09-06T07:16:27.353Z,19.96
2022-09-06T07:18:55.151Z,20.02
2022-09-06T07:24:10.824Z,20.09
2022-09-06T07:26:29.453Z,20.11
2022-09-06T07:32:36.076Z,20.22
2022-09-06T07:37:00.848Z,20.36
2022-09-06T07:38:30.724Z,20.39
2022-09-06T07:41:18.560Z,20.44
2022-09-06T07:44:27.657Z,20.58
2022-09-06T07:48:17.127Z,20.66
2022-09-06T07:50:54.595Z,20.66
2022-09-06T07:54:30.369Z,20.80
2022-09-06T07:55:56.614Z,20.81
2022-09-06T08:00:34.729Z,20.96
2022-09-06T08:02:32.525Z,21.00
2022-09-06T08:04:51.852Z,21.07
2022-09-06T08:07:42.826Z,21.14
2022-09-06T08:09:32.549Z,21.15
2022-09-06T08:11:30.337Z,21.24
2022-09-06T08:14:17.880Z,21.32
2022-09-06T08:16:38.548Z,21.39
2022-09-06T08:18:05.445Z,21.42
2022-09-06T08:27:48.615Z,21.73
2022-09-06T08:29:46.730Z,21.77
2022-09-06T08:32:53.713Z,21.89
2022-09-06T08:34:52.525Z,21.98
2022-09-06T08:38:10.109Z,22.08
2022-09-06T08:41:07.630Z,22.17
2022-09-06T08:42:57.353Z,22.22
2022-09-06T08:48:15.531Z,22.43
2022-09-06T08:50:15.302Z,22.48
2022-09-06T08:52:13.098Z,22.54
2022-09-06T08:55:39.411Z,22.66
2022-09-06T08:57:09.233Z,22.69
2022-09-06T08:59:37.089Z,22.78
2022-09-06T09:01:36.012Z,22.87
2022-09-06T09:03:05.829Z,22.90
2022-09-06T09:08:01.231Z,23.03
2022-09-06T09:10:57.898Z,23.15
2022-09-06T09:12:26.783Z,23.20
2022-09-06T09:13:56.335Z,23.24
2022-09-06T09:16:23.530Z,23.34
2022-09-06T09:17:54.299Z,23.40
2022-09-06T09:19:53.547Z,23.46
2022-09-06T09:21:42.298Z,23.51
2022-09-06T09:23:11.207Z,23.55
2022-09-06T09:25:39.552Z,23.59
2022-09-06T09:31:16.046Z,23.84
2022-09-06T09:32:44.682Z,23.88
2022-09-06T09:34:14.302Z,23.95
2022-09-06T09:35:44.497Z,23.99
2022-09-06T09:40:50.790Z,24.08
2022-09-06T09:43:09.424Z,24.17
2022-09-06T09:45:08.704Z,24.23
2022-09-06T09:47:08.146Z,24.30
2022-09-06T09:48:38.062Z,24.39
2022-09-06T09:50:08.149Z,24.42
2022-09-06T09:52:06.231Z,24.54
2022-09-06T09:56:50.002Z,24.73
2022-09-06T10:00:19.286Z,24.89
2022-09-06T10:03:08.873Z,25.04
2022-09-06T10:07:55.709Z,25.32
2022-09-06T10:10:42.559Z,25.44
2022-09-06T10:14:28.730Z,25.63
2022-09-06T10:17:26.470Z,25.75
2022-09-06T10:20:45.234Z,26.00
2022-09-06T10:22:34.262Z,26.21
2022-09-06T10:25:32.649Z,26.52
2022-09-06T10:28:10.880Z,26.78
2022-09-06T10:29:31.557Z,26.89
2022-09-06T10:31:21.266Z,27.03
2022-09-06T10:32:51.079Z,27.14
2022-09-06T10:34:20.962Z,27.25
2022-09-06T10:36:20.168Z,27.36
2022-09-06T10:39:07.764Z,27.51
2022-09-06T10:40:36.655Z,27.55
2022-09-06T10:42:55.550Z,27.55
2022-09-06T10:45:44.578Z,27.65
2022-09-06T10:47:14.010Z,27.70
2022-09-06T10:49:31.629Z,27.85
2022-09-06T10:53:50.829Z,28.17
2022-09-06T10:55:19.429Z,28.32
2022-09-06T10:59:37.860Z,28.60
2022-09-06T11:00:38.425Z,28.66
2022-09-06T11:02:10.311Z,28.72
2022-09-06T11:03:56.998Z,28.76
2022-09-06T11:11:35.755Z,29.26
2022-09-06T11:13:43.212Z,29.38
2022-09-06T11:15:42.584Z,29.44
2022-09-06T11:17:11.562Z,29.57
2022-09-06T11:22:01.695Z,29.93
2022-09-06T11:25:08.488Z,30.06
2022-09-06T11:29:45.822Z,30.16
2022-09-06T11:32:46.026Z,30.37
2022-09-06T11:37:13.716Z,30.55
2022-09-06T11:48:33.921Z,30.77
2022-09-06T11:51:51.204Z,30.99
2022-09-06T11:53:21.166Z,31.07
2022-09-06T11:54:50.080Z,31.14
2022-09-06T11:56:19.955Z,31.24
2022-09-06T11:59:08.497Z,31.20
2022-09-06T12:01:06.313Z,31.24
2022-09-06T12:04:23.115Z,31.37
2022-09-06T12:08:38.545Z,31.46
2022-09-06T12:13:33.126Z,31.58
2022-09-06T12:16:30.475Z,31.80
2022-09-06T12:17:59.614Z,31.84
2022-09-06T12:21:25.241Z,31.81
2022-09-06T12:24:12.058Z,31.90
2022-09-06T12:28:09.191Z,32.07
2022-09-06T12:29:38.367Z,32.09
2022-09-06T12:31:07.660Z,32.21
2022-09-06T12:33:56.346Z,32.36
2022-09-06T12:36:44.632Z,32.33
2022-09-06T12:38:14.552Z,32.38
2022-09-06T12:39:44.518Z,32.52
2022-09-06T12:41:13.817Z,32.60
2022-09-06T12:43:42.987Z,32.65
2022-09-06T12:45:41.918Z,32.67
2022-09-06T12:48:51.525Z,32.23
2022-09-06T12:50:19.936Z,32.03
2022-09-06T12:52:21.722Z,31.89
2022-09-06T12:53:49.093Z,31.74
2022-09-06T12:55:18.494Z,31.56
2022-09-06T12:56:47.572Z,31.49
2022-09-06T12:58:17.735Z,31.58
2022-09-06T13:04:11.684Z,31.77
2022-09-06T13:05:41.545Z,31.77
2022-09-06T13:07:40.731Z,31.89
2022-09-06T13:09:39.516Z,31.78
2022-09-06T13:11:57.257Z,31.58
2022-09-06T13:17:50.974Z,31.42
2022-09-06T13:20:48.150Z,31.61
2022-09-06T13:23:46.951Z,31.78
2022-09-06T13:31:09.949Z,31.99
2022-09-06T13:34:56.870Z,32.26
2022-09-06T13:36:26.858Z,32.37
2022-09-06T13:38:55.567Z,32.52
2022-09-06T13:41:16.501Z,32.49
2022-09-06T13:42:43.142Z,32.40
2022-09-06T13:59:31.887Z,32.18
2022-09-06T14:03:08.523Z,32.01
2022-09-06T14:06:25.900Z,32.08
2022-09-06T14:11:57.709Z,31.92
2022-09-06T14:14:27.371Z,31.65
2022-09-06T14:15:55.386Z,31.55
2022-09-06T14:21:08.841Z,31.42
2022-09-06T14:24:07.265Z,31.40
2022-09-06T14:27:05.340Z,31.55
2022-09-06T14:29:33.371Z,31.70
2022-09-06T14:31:02.670Z,31.77
2022-09-06T14:36:29.039Z,32.01
2022-09-06T14:47:00.535Z,32.34
2022-09-06T14:49:59.043Z,32.58
2022-09-06T14:56:02.064Z,31.84
2022-09-06T14:58:29.087Z,32.01
2022-09-06T15:00:27.902Z,32.14
2022-09-06T15:12:57.624Z,32.31
2022-09-06T15:14:56.289Z,32.29
2022-09-06T15:18:51.759Z,32.16
2022-09-06T15:20:20.698Z,32.16
2022-09-06T15:24:01.417Z,31.94
2022-09-06T15:26:00.619Z,31.87
2022-09-06T15:30:51.367Z,31.73
2022-09-06T15:38:29.610Z,31.77
2022-09-06T15:40:28.614Z,31.80
2022-09-06T15:43:16.117Z,31.81
2022-09-06T15:45:45.258Z,31.76
2022-09-06T15:50:51.246Z,31.70
2022-09-06T15:54:09.224Z,31.64
2022-09-06T15:56:37.129Z,31.58
2022-09-06T16:03:10.732Z,31.43
2022-09-06T16:06:27.767Z,31.37
2022-09-06T16:08:24.757Z,31.36
2022-09-06T16:09:54.610Z,31.34
2022-09-06T16:12:24.429Z,31.31
2022-09-06T16:23:36.786Z,31.02
2022-09-06T16:25:07.534Z,30.99
2022-09-06T16:27:07.954Z,30.91
2022-09-06T16:29:57.364Z,30.80
2022-09-06T16:32:45.838Z,30.70
2022-09-06T16:37:08.576Z,30.37
2022-09-06T16:43:23.916Z,30.09
2022-09-06T16:55:58.096Z,29.72
2022-09-06T17:05:00.539Z,29.34
2022-09-06T17:10:13.713Z,28.98
2022-09-06T17:11:42.877Z,28.93
2022-09-06T17:15:30.852Z,28.76
2022-09-06T17:16:59.851Z,28.70
2022-09-06T17:18:58.566Z,28.62
2022-09-06T17:20:57.398Z,28.51
2022-09-06T17:24:43.833Z,28.32
2022-09-06T17:31:00.917Z,28.07
2022-09-06T17:33:29.577Z,27.96
2022-09-06T17:34:58.480Z,27.90
2022-09-06T17:39:14.920Z,27.73
2022-09-06T17:40:44.846Z,27.67
2022-09-06T17:43:13.914Z,27.60
2022-09-06T17:44:43.728Z,27.52
2022-09-06T17:47:02.849Z,27.47
2022-09-06T17:52:57.745Z,27.21
2022-09-06T17:56:35.495Z,27.07
2022-09-06T17:58:04.360Z,26.99
2022-09-06T18:00:55.057Z,26.90
2022-09-06T18:02:23.881Z,26.83
2022-09-06T18:03:54.079Z,26.77
2022-09-06T18:05:52.065Z,26.73
2022-09-06T18:09:40.480Z,26.60
2022-09-06T18:17:37.864Z,26.37
2022-09-06T18:32:25.111Z,25.98
2022-09-06T18:33:53.975Z,25.93
2022-09-06T18:35:22.934Z,25.88
2022-09-06T18:38:21.780Z,25.83
2022-09-06T18:40:20.660Z,25.77
2022-09-06T18:41:49.597Z,25.75
2022-09-06T18:43:19.747Z,25.70
2022-09-06T18:44:48.735Z,25.66
2022-09-06T18:50:03.994Z,25.51
2022-09-06T18:51:32.853Z,25.47
2022-09-06T18:53:59.645Z,25.43
2022-09-06T18:57:54.825Z,25.33
2022-09-06T19:00:22.976Z,25.26
2022-09-06T19:01:54.166Z,25.23
2022-09-06T19:03:50.074Z,25.17
2022-09-06T19:05:50.547Z,25.11
2022-09-06T19:07:18.803Z,25.10
2022-09-06T19:09:37.865Z,25.06
2022-09-06T19:11:06.339Z,25.03
2022-09-06T19:13:52.917Z,24.98
2022-09-06T19:15:24.751Z,24.96
2022-09-06T19:19:21.604Z,24.92
2022-09-06T19:33:07.941Z,24.78
2022-09-06T19:36:11.904Z,24.73
2022-09-06T19:38:47.317Z,24.69
2022-09-06T19:44:01.424Z,24.69
2022-09-06T19:45:58.568Z,24.66
2022-09-06T19:48:26.469Z,24.63
2022-09-06T19:56:04.335Z,24.55
2022-09-06T19:58:23.644Z,24.54
2022-09-06T20:04:36.473Z,24.45
2022-09-06T20:06:05.304Z,24.42
2022-09-06T20:08:04.340Z,24.36
2022-09-06T20:10:03.149Z,24.36
2022-09-06T20:16:27.126Z,24.26
2022-09-06T20:22:32.706Z,24.14
2022-09-06T20:25:18.608Z,24.08
2022-09-06T20:27:16.461Z,24.03
2022-09-06T20:29:18.186Z,23.96
2022-09-06T20:31:47.104Z,23.91
2022-09-06T20:35:03.926Z,23.86
2022-09-06T20:37:01.686Z,23.81
2022-09-06T20:39:30.455Z,23.74
2022-09-06T20:41:59.225Z,23.71
2022-09-06T20:45:24.818Z,23.63
2022-09-06T20:47:29.201Z,23.58
2022-09-06T20:53:14.179Z,23.37
2022-09-06T20:55:11.950Z,23.34
2022-09-06T20:57:40.656Z,23.28
2022-09-06T21:00:36.811Z,23.24
2022-09-06T21:02:38.103Z,23.21
2022-09-06T21:04:07.176Z,23.18
2022-09-06T21:06:35.296Z,23.13
2022-09-06T21:10:23.104Z,23.03
2022-09-06T21:12:39.673Z,23.03
2022-09-06T21:14:57.643Z,23.03
2022-09-06T21:18:35.155Z,23.03
2022-09-06T21:22:21.587Z,23.08
2022-09-06T21:28:36.129Z,23.10
2022-09-06T21:30:56.757Z,23.12
2022-09-06T21:36:03.910Z,23.09
2022-09-06T21:44:42.688Z,23.06
2022-09-06T21:46:12.639Z,23.03
2022-09-06T21:49:55.482Z,23.02
2022-09-06T21:51:22.643Z,22.99
2022-09-06T21:53:54.446Z,22.99
2022-09-06T21:55:43.172Z,22.99
2022-09-06T21:59:40.784Z,22.99
2022-09-06T22:04:46.945Z,22.98
2022-09-06T22:09:20.140Z,22.96
2022-09-06T22:10:49.490Z,22.96
2022-09-06T22:12:19.903Z,22.96
2022-09-06T22:17:47.626Z,22.94
2022-09-06T22:22:54.835Z,22.93
2022-09-06T22:26:01.915Z,22.94
2022-09-06T22:29:10.309Z,22.93
2022-09-06T22:31:10.275Z,22.91
2022-09-06T22:32:40.031Z,22.91
2022-09-06T22:36:06.550Z,22.88
2022-09-06T22:38:05.408Z,22.88
2022-09-06T22:40:02.648Z,22.88
2022-09-06T22:42:31.287Z,22.87
2022-09-06T22:44:49.896Z,22.87
2022-09-06T22:46:38.660Z,22.85
2022-09-06T22:48:58.214Z,22.81
2022-09-06T22:51:45.708Z,22.80
2022-09-06T22:54:04.674Z,22.75
2022-09-06T22:55:36.500Z,22.72
2022-09-06T22:58:45.054Z,22.68
2022-09-06T23:01:04.162Z,22.66
2022-09-06T23:03:02.930Z,22.62
2022-09-06T23:08:16.538Z,22.53
2022-09-06T23:14:43.487Z,22.44
2022-09-06T23:16:13.906Z,22.43
2022-09-06T23:19:52.696Z,22.38
2022-09-06T23:21:23.052Z,22.35
2022-09-06T23:23:40.306Z,22.33
2022-09-06T23:26:29.289Z,22.30
2022-09-06T23:27:56.896Z,22.29
2022-09-06T23:32:02.959Z,22.25
2022-09-06T23:35:40.505Z,22.22
2022-09-06T23:37:40.263Z,22.22
2022-09-06T23:39:08.868Z,22.20
2022-09-06T23:40:38.731Z,22.20
2022-09-06T23:47:34.433Z,22.17
2022-09-06T23:51:22.806Z,22.15
2022-09-06T23:56:38.200Z,22.13
2022-09-06T23:59:05.207Z,22.14
